createdAt,value
2023-03-16T00:01:42.061Z,95790.50
2023-03-16T00:04:09.005Z,95796.94
2023-03-16T00:06:35.491Z,95791.84
2023-03-16T00:09:02.745Z,95798.03
2023-03-16T00:11:29.394Z,95801.25
2023-03-16T00:13:55.972Z,95795.09
2023-03-16T00:16:22.509Z,95790.50
2023-03-16T00:18:49.136Z,95792.09
2023-03-16T00:21:15.970Z,95795.34
2023-03-16T00:23:42.431Z,95791.56
2023-03-16T00:26:09.611Z,95795.63
2023-03-16T00:28:36.729Z,95787.56
2023-03-16T00:31:08.761Z,95786.50
2023-03-16T00:33:35.395Z,95779.75
2023-03-16T00:36:07.004Z,95781.91
2023-03-16T00:38:38.600Z,95775.44
2023-03-16T00:41:07.686Z,95779.50
2023-03-16T00:43:35.970Z,95777.34
2023-03-16T00:46:02.505Z,95783.50
2023-03-16T00:48:29.177Z,95779.72
2023-03-16T00:50:55.685Z,95784.03
2023-03-16T00:53:22.268Z,95782.13
2023-03-16T00:55:48.815Z,95781.03
2023-03-16T00:58:15.558Z,95781.81
2023-03-16T01:00:42.120Z,95786.91
2023-03-16T01:03:08.782Z,95793.06
2023-03-16T01:05:40.139Z,95785.81
2023-03-16T01:08:06.748Z,95790.09
2023-03-16T01:10:35.408Z,95779.88
2023-03-16T01:13:02.185Z,95778.53
2023-03-16T01:15:31.784Z,95782.56
2023-03-16T01:17:58.463Z,95790.03
2023-03-16T01:20:25.014Z,95794.88
2023-03-16T01:22:51.870Z,95787.88
2023-03-16T01:25:18.816Z,95780.09
2023-03-16T01:27:45.401Z,95786.81
2023-03-16T01:30:12.562Z,95796.16
2023-03-16T01:32:39.502Z,95783.53
2023-03-16T01:35:07.824Z,95790.25
2023-03-16T01:37:34.399Z,95784.84
2023-03-16T01:40:12.655Z,95781.59
2023-03-16T01:42:47.433Z,95774.59
2023-03-16T01:45:52.070Z,95773.78
2023-03-16T01:48:24.756Z,95771.03
2023-03-16T01:50:53.292Z,95771.81
2023-03-16T01:53:22.995Z,95763.19
2023-03-16T01:55:50.622Z,95765.03
2023-03-16T01:58:17.691Z,95765.84
2023-03-16T02:00:44.461Z,95762.31
2023-03-16T02:03:21.172Z,95761.19
2023-03-16T02:06:11.426Z,95760.63
2023-03-16T02:08:44.675Z,95758.72
2023-03-16T02:11:12.375Z,95759.22
2023-03-16T02:13:51.165Z,95761.88
2023-03-16T02:16:19.724Z,95770.69
2023-03-16T02:18:50.420Z,95768.75
2023-03-16T02:21:29.147Z,95758.81
2023-03-16T02:23:55.830Z,95765.47
2023-03-16T02:26:46.016Z,95763.00
2023-03-16T02:29:51.945Z,95770.47
2023-03-16T02:32:20.743Z,95769.91
2023-03-16T02:34:47.594Z,95772.81
2023-03-16T02:37:14.424Z,95767.19
2023-03-16T02:39:42.033Z,95763.97
2023-03-16T02:42:13.137Z,95763.66
2023-03-16T02:44:40.416Z,95763.91
2023-03-16T02:47:13.198Z,95767.91
2023-03-16T02:49:45.462Z,95758.75
2023-03-16T02:52:12.594Z,95763.56
2023-03-16T02:54:39.450Z,95766.72
2023-03-16T02:57:06.071Z,95766.19
2023-03-16T02:59:35.428Z,95760.53
2023-03-16T03:02:02.660Z,95761.03
2023-03-16T03:04:29.205Z,95765.81
2023-03-16T03:06:55.829Z,95765.25
2023-03-16T03:09:22.405Z,95763.09
2023-03-16T03:11:53.085Z,95761.75
2023-03-16T03:14:20.979Z,95755.25
2023-03-16T03:16:49.124Z,95762.75
2023-03-16T03:19:15.797Z,95765.94
2023-03-16T03:21:42.383Z,95755.72
2023-03-16T03:24:09.634Z,95757.84
2023-03-16T03:26:37.097Z,95758.28
2023-03-16T03:29:05.656Z,95756.97
2023-03-16T03:31:35.026Z,95760.94
2023-03-16T03:34:01.730Z,95764.69
2023-03-16T03:36:28.206Z,95761.69
2023-03-16T03:38:54.841Z,95759.25
2023-03-16T03:41:21.655Z,95763.25
2023-03-16T03:43:49.083Z,95758.41
2023-03-16T03:46:17.969Z,95751.69
2023-03-16T03:48:44.771Z,95748.47
2023-03-16T03:51:11.476Z,95754.06
2023-03-16T03:53:46.337Z,95757.22
2023-03-16T03:56:38.816Z,95759.34
2023-03-16T03:59:10.198Z,95753.69
2023-03-16T04:02:02.890Z,95753.13
2023-03-16T04:04:46.974Z,95748.28
2023-03-16T04:07:14.739Z,95747.72
2023-03-16T04:09:42.934Z,95743.66
2023-03-16T04:12:17.572Z,95745.00
2023-03-16T04:14:44.249Z,95738.00
2023-03-16T04:17:11.348Z,95739.34
2023-03-16T04:19:39.729Z,95744.94
2023-03-16T04:22:11.021Z,95752.13
2023-03-16T04:24:37.577Z,95748.91
2023-03-16T04:27:04.386Z,95750.78
2023-03-16T04:29:31.017Z,95745.91
2023-03-16T04:31:58.484Z,95746.16
2023-03-16T04:34:27.399Z,95749.88
2023-03-16T04:36:58.135Z,95755.72
2023-03-16T04:39:24.758Z,95752.50
2023-03-16T04:41:52.355Z,95765.31
2023-03-16T04:44:22.150Z,95758.34
2023-03-16T04:46:50.114Z,95758.56
2023-03-16T04:49:17.696Z,95764.16
2023-03-16T04:51:45.480Z,95764.97
2023-03-16T04:54:18.831Z,95758.56
2023-03-16T04:56:45.363Z,95754.84
2023-03-16T04:59:30.748Z,95759.13
2023-03-16T05:02:04.628Z,95761.31
2023-03-16T05:04:31.842Z,95754.69
2023-03-16T05:06:58.393Z,95750.69
2023-03-16T05:09:29.598Z,95744.03
2023-03-16T05:11:56.146Z,95742.75
2023-03-16T05:14:22.752Z,95746.28
2023-03-16T05:17:04.375Z,95745.78
2023-03-16T05:19:32.195Z,95742.38
2023-03-16T05:21:58.745Z,95733.31
2023-03-16T05:24:25.720Z,95741.06
2023-03-16T05:26:52.305Z,95736.53
2023-03-16T05:29:21.338Z,95737.91
2023-03-16T05:31:49.791Z,95733.34
2023-03-16T05:34:20.303Z,95731.47
2023-03-16T05:36:46.820Z,95727.50
2023-03-16T05:39:16.196Z,95725.09
2023-03-16T05:41:46.986Z,95736.09
2023-03-16T05:44:21.980Z,95729.94
2023-03-16T05:47:06.933Z,95720.28
2023-03-16T05:49:37.477Z,95725.63
2023-03-16T05:52:08.720Z,95728.59
2023-03-16T05:54:35.964Z,95722.47
2023-03-16T05:57:02.906Z,95720.91
2023-03-16T05:59:29.621Z,95716.13
2023-03-16T06:01:57.631Z,95722.22
2023-03-16T06:04:24.260Z,95718.53
2023-03-16T06:06:50.884Z,95723.63
2023-03-16T06:09:23.389Z,95718.03
2023-03-16T06:11:49.991Z,95725.56
2023-03-16T06:14:17.735Z,95726.13
2023-03-16T06:16:45.421Z,95725.06
2023-03-16T06:19:13.506Z,95727.00
2023-03-16T06:21:40.124Z,95725.66
2023-03-16T06:24:09.667Z,95725.16
2023-03-16T06:26:37.368Z,95730.56
2023-03-16T06:29:07.349Z,95733.31
2023-03-16T06:31:36.482Z,95744.31
2023-03-16T06:34:03.396Z,95739.25
2023-03-16T06:36:30.856Z,95741.97
2023-03-16T06:39:00.404Z,95737.19
2023-03-16T06:41:33.757Z,95736.69
2023-03-16T06:44:00.454Z,95738.88
2023-03-16T06:46:27.782Z,95747.75
2023-03-16T06:48:55.439Z,95750.97
2023-03-16T06:51:22.029Z,95751.28
2023-03-16T06:53:50.135Z,95749.69
2023-03-16T06:56:17.247Z,95750.03
2023-03-16T06:58:45.701Z,95748.19
2023-03-16T07:01:12.413Z,95750.91
2023-03-16T07:03:39.437Z,95747.44
2023-03-16T07:06:14.877Z,95751.00
2023-03-16T07:08:42.307Z,95738.66
2023-03-16T07:11:09.585Z,95740.59
2023-03-16T07:13:36.750Z,95742.00
2023-03-16T07:16:03.700Z,95739.94
2023-03-16T07:18:30.943Z,95736.50
2023-03-16T07:20:58.054Z,95734.97
2023-03-16T07:23:26.251Z,95738.72
2023-03-16T07:25:58.343Z,95732.31
2023-03-16T07:28:25.578Z,95733.69
2023-03-16T07:31:03.064Z,95732.09
2023-03-16T07:33:36.221Z,95737.78
2023-03-16T07:36:05.323Z,95740.47
2023-03-16T07:38:33.642Z,95734.00
2023-03-16T07:41:00.477Z,95738.34
2023-03-16T07:43:28.163Z,95737.31
2023-03-16T07:45:55.879Z,95738.69
2023-03-16T07:48:24.366Z,95738.19
2023-03-16T07:51:00.528Z,95740.13
2023-03-16T07:53:28.390Z,95749.53
2023-03-16T07:56:11.779Z,95735.84
2023-03-16T07:58:40.764Z,95729.44
2023-03-16T08:01:07.555Z,95733.75
2023-03-16T08:03:35.376Z,95743.75
2023-03-16T08:06:01.902Z,95743.22
2023-03-16T08:08:28.757Z,95760.41
2023-03-16T08:10:56.686Z,95754.53
2023-03-16T08:13:33.793Z,95762.06
2023-03-16T08:16:00.380Z,95761.78
2023-03-16T08:18:32.775Z,95768.50
2023-03-16T08:20:59.376Z,95761.81
2023-03-16T08:23:26.162Z,95771.75
2023-03-16T08:25:57.288Z,95769.88
2023-03-16T08:28:24.874Z,95773.06
2023-03-16T08:30:53.812Z,95779.53
2023-03-16T08:33:28.657Z,95761.50
2023-03-16T08:35:55.686Z,95763.66
2023-03-16T08:38:22.278Z,95766.63
2023-03-16T08:40:51.399Z,95770.13
2023-03-16T08:43:20.482Z,95763.66
2023-03-16T08:45:48.763Z,95771.16
2023-03-16T08:48:17.227Z,95764.97
2023-03-16T08:50:46.818Z,95752.81
2023-03-16T08:53:14.994Z,95758.22
2023-03-16T08:55:42.210Z,95766.03
2023-03-16T08:58:10.221Z,95764.69
2023-03-16T09:00:37.142Z,95759.31
2023-03-16T09:03:03.961Z,95756.34
2023-03-16T09:05:30.478Z,95756.56
2023-03-16T09:07:57.409Z,95747.13
2023-03-16T09:10:23.916Z,95753.03
2023-03-16T09:12:50.990Z,95760.28
2023-03-16T09:15:19.204Z,95757.56
2023-03-16T09:17:45.792Z,95757.88
2023-03-16T09:20:30.050Z,95752.22
2023-03-16T09:22:57.167Z,95752.50
2023-03-16T09:25:24.168Z,95750.06
2023-03-16T09:27:51.116Z,95750.88
2023-03-16T09:30:17.896Z,95752.50
2023-03-16T09:32:44.357Z,95764.28
2023-03-16T09:35:10.953Z,95759.41
2023-03-16T09:37:44.997Z,95764.22
2023-03-16T09:40:23.391Z,95760.16
2023-03-16T09:43:18.663Z,95768.44
2023-03-16T09:45:56.014Z,95759.47
2023-03-16T09:48:23.446Z,95766.44
2023-03-16T09:50:51.717Z,95766.66
2023-03-16T09:53:29.377Z,95757.22
2023-03-16T09:56:02.326Z,95772.28
2023-03-16T09:58:28.937Z,95772.75
2023-03-16T10:01:13.121Z,95771.34
2023-03-16T10:03:58.042Z,95762.13
2023-03-16T10:06:25.068Z,95770.94
2023-03-16T10:09:07.605Z,95760.72
2023-03-16T10:11:44.023Z,95758.53
2023-03-16T10:14:40.215Z,95762.03
2023-03-16T10:17:29.324Z,95755.56
2023-03-16T10:20:08.366Z,95764.44
2023-03-16T10:22:38.147Z,95748.19
2023-03-16T10:25:10.897Z,95746.78
2023-03-16T10:27:40.702Z,95752.91
2023-03-16T10:30:14.754Z,95742.63
2023-03-16T10:32:41.376Z,95750.38
2023-03-16T10:35:33.955Z,95750.09
2023-03-16T10:38:00.498Z,95756.00
2023-03-16T10:40:32.245Z,95743.81
2023-03-16T10:43:13.123Z,95740.28
2023-03-16T10:45:39.965Z,95742.34
2023-03-16T10:48:14.228Z,95736.81
2023-03-16T10:50:43.368Z,95728.63
2023-03-16T10:53:25.790Z,95722.50
2023-03-16T10:55:58.338Z,95722.69
2023-03-16T10:58:34.019Z,95719.69
2023-03-16T11:01:00.715Z,95709.88
2023-03-16T11:03:38.290Z,95702.66
2023-03-16T11:06:06.917Z,95698.06
2023-03-16T11:08:39.880Z,95702.50
2023-03-16T11:11:14.181Z,95692.22
2023-03-16T11:13:45.576Z,95695.94
2023-03-16T11:16:27.922Z,95682.22
2023-03-16T11:19:00.693Z,95680.41
2023-03-16T11:21:30.120Z,95667.47
2023-03-16T11:23:58.656Z,95671.75
2023-03-16T11:26:33.756Z,95674.84
2023-03-16T11:29:07.089Z,95671.00
2023-03-16T11:31:42.286Z,95664.25
2023-03-16T11:34:15.048Z,95666.84
2023-03-16T11:36:52.778Z,95666.41
2023-03-16T11:39:42.411Z,95646.91
2023-03-16T11:42:17.922Z,95656.34
2023-03-16T11:45:01.384Z,95649.75
2023-03-16T11:47:51.716Z,95645.59
2023-03-16T11:50:26.282Z,95641.91
2023-03-16T11:53:28.964Z,95635.09
2023-03-16T11:56:14.225Z,95633.41
2023-03-16T11:58:55.466Z,95632.81
2023-03-16T12:01:34.195Z,95619.22
2023-03-16T12:04:37.762Z,95623.13
2023-03-16T12:07:35.318Z,95614.34
2023-03-16T12:10:23.276Z,95614.75
2023-03-16T12:13:01.593Z,95606.16
2023-03-16T12:15:41.601Z,95601.94
2023-03-16T12:18:19.356Z,95594.91
2023-03-16T12:21:01.701Z,95596.72
2023-03-16T12:23:41.632Z,95590.69
2023-03-16T12:26:08.336Z,95590.41
2023-03-16T12:28:36.605Z,95580.88
2023-03-16T12:31:15.369Z,95577.59
2023-03-16T12:33:53.304Z,95568.56
2023-03-16T12:36:42.995Z,95576.28
2023-03-16T12:39:22.924Z,95569.66
2023-03-16T12:42:01.153Z,95562.22
2023-03-16T12:44:46.145Z,95561.63
2023-03-16T12:47:35.089Z,95557.81
2023-03-16T12:50:07.361Z,95556.44
2023-03-16T12:52:48.357Z,95566.66
2023-03-16T12:55:20.999Z,95563.13
2023-03-16T12:57:50.316Z,95564.00
2023-03-16T13:00:18.077Z,95564.91
2023-03-16T13:02:51.662Z,95559.06
2023-03-16T13:05:30.258Z,95553.94
2023-03-16T13:08:14.145Z,95549.38
2023-03-16T13:10:40.958Z,95557.00
2023-03-16T13:13:09.880Z,95556.88
2023-03-16T13:15:36.445Z,95542.41
2023-03-16T13:18:08.445Z,95543.88
2023-03-16T13:20:52.325Z,95551.25
2023-03-16T13:23:18.778Z,95534.22
2023-03-16T13:25:58.369Z,95531.66
2023-03-16T13:28:30.738Z,95532.91
2023-03-16T13:30:57.673Z,95538.97
2023-03-16T13:33:30.957Z,95536.97
2023-03-16T13:35:59.633Z,95541.63
2023-03-16T13:38:28.082Z,95542.28
2023-03-16T13:40:57.847Z,95531.00
2023-03-16T13:43:27.896Z,95524.59
2023-03-16T13:45:58.259Z,95521.09
2023-03-16T13:48:25.425Z,95527.69
2023-03-16T13:50:53.754Z,95520.16
2023-03-16T13:53:24.236Z,95525.75
2023-03-16T13:55:52.705Z,95513.97
2023-03-16T13:58:20.962Z,95517.00
2023-03-16T14:00:47.646Z,95524.19
2023-03-16T14:03:19.413Z,95516.34
2023-03-16T14:05:46.355Z,95517.03
2023-03-16T14:08:17.336Z,95518.50
2023-03-16T14:10:44.609Z,95514.03
2023-03-16T14:13:29.305Z,95512.28
2023-03-16T14:15:59.248Z,95517.72
2023-03-16T14:18:32.179Z,95507.47
2023-03-16T14:20:58.795Z,95507.78
2023-03-16T14:23:31.227Z,95507.13
2023-03-16T14:25:57.903Z,95508.88
2023-03-16T14:28:32.389Z,95499.44
2023-03-16T14:31:09.257Z,95508.06
2023-03-16T14:33:38.239Z,95499.34
2023-03-16T14:36:15.088Z,95500.31
2023-03-16T14:38:42.919Z,95494.72
2023-03-16T14:41:17.241Z,95504.63
2023-03-16T14:43:52.344Z,95502.69
2023-03-16T14:46:31.897Z,95507.81
2023-03-16T14:49:21.691Z,95503.97
2023-03-16T14:51:50.385Z,95495.22
2023-03-16T14:54:18.770Z,95499.66
2023-03-16T14:56:59.142Z,95484.66
2023-03-16T14:59:25.686Z,95487.06
2023-03-16T15:01:53.794Z,95483.06
2023-03-16T15:04:46.599Z,95486.22
2023-03-16T15:07:23.210Z,95488.31
2023-03-16T15:09:50.742Z,95484.00
2023-03-16T15:12:19.368Z,95485.63
2023-03-16T15:14:46.534Z,95476.84
2023-03-16T15:17:13.002Z,95486.59
2023-03-16T15:19:39.515Z,95482.63
2023-03-16T15:22:06.409Z,95476.03
2023-03-16T15:24:33.374Z,95474.31
2023-03-16T15:27:00.532Z,95486.13
2023-03-16T15:29:27.241Z,95479.75
2023-03-16T15:31:54.668Z,95471.44
2023-03-16T15:34:21.538Z,95468.84
2023-03-16T15:36:48.402Z,95473.34
2023-03-16T15:39:23.649Z,95485.44
2023-03-16T15:41:50.157Z,95479.53
2023-03-16T15:44:16.699Z,95480.81
2023-03-16T15:46:43.306Z,95489.25
2023-03-16T15:49:09.784Z,95471.38
2023-03-16T15:51:36.371Z,95474.72
2023-03-16T15:54:06.934Z,95471.84
2023-03-16T15:56:51.259Z,95460.00
2023-03-16T15:59:19.872Z,95464.78
2023-03-16T16:01:47.686Z,95463.00
2023-03-16T16:04:17.071Z,95449.59
2023-03-16T16:06:43.629Z,95449.91
2023-03-16T16:09:10.295Z,95444.78
2023-03-16T16:11:37.570Z,95446.22
2023-03-16T16:14:04.916Z,95441.72
2023-03-16T16:16:32.329Z,95441.25
2023-03-16T16:18:59.309Z,95445.06
2023-03-16T16:21:28.445Z,95441.06
2023-03-16T16:23:55.043Z,95434.53
2023-03-16T16:26:41.633Z,95434.03
2023-03-16T16:29:19.511Z,95417.59
2023-03-16T16:31:46.214Z,95419.03
2023-03-16T16:34:18.835Z,95426.47
2023-03-16T16:36:49.124Z,95433.34
2023-03-16T16:39:15.835Z,95432.38
2023-03-16T16:41:43.094Z,95436.00
2023-03-16T16:44:18.757Z,95451.16
2023-03-16T16:46:47.889Z,95451.78
2023-03-16T16:49:28.981Z,95451.41
2023-03-16T16:51:55.519Z,95443.88
2023-03-16T16:54:28.782Z,95452.78
2023-03-16T16:56:57.021Z,95454.00
2023-03-16T16:59:28.807Z,95457.47
2023-03-16T17:01:55.540Z,95454.34
2023-03-16T17:04:24.871Z,95460.81
2023-03-16T17:06:56.928Z,95470.47
2023-03-16T17:09:24.723Z,95466.91
2023-03-16T17:11:51.372Z,95464.91
2023-03-16T17:14:20.705Z,95469.47
2023-03-16T17:16:47.642Z,95464.75
2023-03-16T17:19:20.239Z,95463.38
2023-03-16T17:21:46.767Z,95471.94
2023-03-16T17:24:13.298Z,95465.94
2023-03-16T17:26:44.781Z,95469.34
2023-03-16T17:29:22.168Z,95472.28
2023-03-16T17:31:49.726Z,95473.28
2023-03-16T17:34:18.006Z,95479.66
2023-03-16T17:36:45.717Z,95483.56
2023-03-16T17:39:18.057Z,95484.88
2023-03-16T17:41:45.013Z,95479.66
2023-03-16T17:44:14.553Z,95490.63
2023-03-16T17:46:41.183Z,95482.44
2023-03-16T17:49:15.854Z,95484.78
2023-03-16T17:51:42.492Z,95478.13
2023-03-16T17:54:09.227Z,95475.31
2023-03-16T17:56:36.560Z,95473.28
2023-03-16T17:59:07.680Z,95467.47
2023-03-16T18:01:35.758Z,95468.63
2023-03-16T18:04:02.326Z,95459.69
2023-03-16T18:06:30.518Z,95456.78
2023-03-16T18:08:57.733Z,95463.84
2023-03-16T18:11:32.887Z,95460.72
2023-03-16T18:14:00.130Z,95469.97
2023-03-16T18:16:26.735Z,95466.81
2023-03-16T18:18:59.024Z,95471.81
2023-03-16T18:21:26.210Z,95468.34
2023-03-16T18:23:55.093Z,95467.63
2023-03-16T18:26:22.085Z,95472.28
2023-03-16T18:28:48.538Z,95475.06
2023-03-16T18:31:24.247Z,95471.59
2023-03-16T18:33:54.128Z,95475.19
2023-03-16T18:36:25.939Z,95471.75
2023-03-16T18:38:53.417Z,95470.19
2023-03-16T18:41:29.450Z,95470.56
2023-03-16T18:43:58.382Z,95473.31
2023-03-16T18:46:35.496Z,95471.75
2023-03-16T18:49:11.751Z,95471.28
2023-03-16T18:51:39.728Z,95471.06
2023-03-16T18:54:27.797Z,95462.22
2023-03-16T18:56:54.823Z,95467.38
2023-03-16T18:59:21.313Z,95463.97
2023-03-16T19:01:47.897Z,95461.03
2023-03-16T19:04:27.153Z,95456.78
2023-03-16T19:06:55.260Z,95460.34
2023-03-16T19:09:23.064Z,95460.16
2023-03-16T19:11:50.326Z,95456.38
2023-03-16T19:14:20.843Z,95449.16
2023-03-16T19:16:47.566Z,95460.47
2023-03-16T19:19:14.556Z,95454.88
2023-03-16T19:21:42.466Z,95451.63
2023-03-16T19:24:23.018Z,95454.38
2023-03-16T19:26:49.592Z,95456.56
2023-03-16T19:29:17.769Z,95450.94
2023-03-16T19:31:44.574Z,95446.16
2023-03-16T19:34:19.355Z,95447.47
2023-03-16T19:36:45.934Z,95448.84
2023-03-16T19:39:14.359Z,95460.44
2023-03-16T19:41:41.482Z,95460.16
2023-03-16T19:44:15.481Z,95455.38
2023-03-16T19:46:42.047Z,95458.34
2023-03-16T19:49:20.298Z,95455.13
2023-03-16T19:51:48.007Z,95450.00
2023-03-16T19:54:29.479Z,95449.78
2023-03-16T19:56:59.609Z,95445.47
2023-03-16T19:59:30.822Z,95448.44
2023-03-16T20:01:57.317Z,95443.34
2023-03-16T20:04:26.053Z,95449.84
2023-03-16T20:06:53.901Z,95443.63
2023-03-16T20:09:21.014Z,95451.69
2023-03-16T20:11:48.824Z,95449.84
2023-03-16T20:14:22.938Z,95446.56
2023-03-16T20:16:49.824Z,95444.44
2023-03-16T20:19:16.422Z,95446.84
2023-03-16T20:21:43.358Z,95444.16
2023-03-16T20:24:15.617Z,95439.56
2023-03-16T20:26:42.859Z,95440.09
2023-03-16T20:31:56.646Z,95429.03
2023-03-16T20:34:31.284Z,95428.25
2023-03-16T20:36:58.608Z,95430.66
2023-03-16T20:39:25.279Z,95429.88
2023-03-16T20:41:52.618Z,95431.44
2023-03-16T20:44:21.167Z,95434.72
2023-03-16T20:46:47.783Z,95429.31
2023-03-16T20:49:23.274Z,95430.44
2023-03-16T20:51:50.117Z,95430.44
2023-03-16T20:54:16.845Z,95419.94
2023-03-16T20:56:43.686Z,95421.03
2023-03-16T20:59:23.546Z,95425.84
2023-03-16T21:01:50.860Z,95426.66
2023-03-16T21:04:24.379Z,95415.38
2023-03-16T21:06:51.237Z,95419.66
2023-03-16T21:09:19.228Z,95429.34
2023-03-16T21:11:47.112Z,95419.13
2023-03-16T21:14:20.157Z,95418.34
2023-03-16T21:16:46.669Z,95414.59
2023-03-16T21:19:15.511Z,95417.28
2023-03-16T21:21:42.083Z,95420.25
2023-03-16T21:24:08.721Z,95419.41
2023-03-16T21:26:35.905Z,95415.16
2023-03-16T21:29:07.463Z,95418.91
2023-03-16T21:31:34.394Z,95417.00
2023-03-16T21:34:01.126Z,95410.31
2023-03-16T21:36:27.816Z,95411.41
2023-03-16T21:38:55.583Z,95409.78
2023-03-16T21:41:22.049Z,95414.38
2023-03-16T21:43:48.745Z,95411.16
2023-03-16T21:46:23.741Z,95405.25
2023-03-16T21:48:53.239Z,95408.22
2023-03-16T21:51:22.221Z,95403.16
2023-03-16T21:53:49.385Z,95405.28
2023-03-16T21:56:18.510Z,95401.28
2023-03-16T21:58:46.188Z,95398.88
2023-03-16T22:01:23.480Z,95403.19
2023-03-16T22:03:56.102Z,95393.50
2023-03-16T22:06:25.610Z,95399.19
2023-03-16T22:08:52.103Z,95395.97
2023-03-16T22:11:24.467Z,95394.66
2023-03-16T22:13:52.082Z,95393.03
2023-03-16T22:16:21.312Z,95392.81
2023-03-16T22:18:50.218Z,95389.28
2023-03-16T22:21:38.588Z,95387.16
2023-03-16T22:24:12.796Z,95392.03
2023-03-16T22:26:39.581Z,95389.91
2023-03-16T22:29:21.911Z,95393.41
2023-03-16T22:32:03.772Z,95389.16
2023-03-16T22:34:42.662Z,95378.41
2023-03-16T22:37:12.617Z,95378.69
2023-03-16T22:39:40.331Z,95376.56
2023-03-16T22:42:27.431Z,95387.34
2023-03-16T22:44:57.441Z,95386.03
2023-03-16T22:47:29.592Z,95396.25
2023-03-16T22:49:56.516Z,95387.66
2023-03-16T22:52:27.968Z,95396.00
2023-03-16T22:54:54.910Z,95391.97
2023-03-16T22:57:21.640Z,95390.38
2023-03-16T22:59:49.589Z,95393.34
2023-03-16T23:02:19.231Z,95383.44
2023-03-16T23:04:47.478Z,95385.31
2023-03-16T23:07:14.396Z,95381.56
2023-03-16T23:09:41.002Z,95381.31
2023-03-16T23:12:15.622Z,95379.97
2023-03-16T23:14:42.191Z,95377.84
2023-03-16T23:17:20.471Z,95382.47
2023-03-16T23:19:47.076Z,95378.44
2023-03-16T23:22:14.313Z,95374.66
2023-03-16T23:24:40.956Z,95376.31
2023-03-16T23:27:19.065Z,95366.41
2023-03-16T23:29:46.101Z,95363.47
2023-03-16T23:32:14.665Z,95370.44
2023-03-16T23:34:41.254Z,95373.69
2023-03-16T23:37:07.903Z,95363.78
2023-03-16T23:39:34.484Z,95364.59
2023-03-16T23:42:01.054Z,95376.97
2023-03-16T23:44:29.373Z,95372.41
2023-03-16T23:46:56.485Z,95375.13
2023-03-16T23:49:32.615Z,95368.94
2023-03-16T23:52:00.902Z,95372.19
2023-03-16T23:54:30.324Z,95362.00
2023-03-16T23:56:56.915Z,95366.31
2023-03-16T23:59:23.812Z,95358.00
